createdAt,value
2022-08-09T00:00:54.064Z,974.92
2022-08-09T00:01:55.544Z,974.92
2022-08-09T00:02:53.923Z,974.87
2022-08-09T00:04:03.550Z,974.79
2022-08-09T00:05:03.191Z,974.87
2022-08-09T00:06:16.672Z,974.90
2022-08-09T00:06:53.719Z,974.93
2022-08-09T00:07:54.347Z,974.91
2022-08-09T00:08:57.077Z,974.87
2022-08-09T00:09:53.571Z,974.87
2022-08-09T00:10:53.540Z,974.87
2022-08-09T00:12:02.613Z,974.87
2022-08-09T00:12:53.548Z,974.90
2022-08-09T00:13:53.374Z,974.87
2022-08-09T00:14:55.975Z,974.87
2022-08-09T00:15:59.970Z,974.83
2022-08-09T00:16:53.227Z,974.84
2022-08-09T00:18:05.624Z,974.90
2022-08-09T00:18:53.129Z,974.90
2022-08-09T00:19:53.079Z,974.85
2022-08-09T00:20:53.046Z,974.80
2022-08-09T00:21:56.539Z,974.84
2022-08-09T00:22:52.932Z,974.93
2022-08-09T00:23:55.460Z,974.89
2022-08-09T00:24:52.850Z,974.78
2022-08-09T00:25:52.799Z,974.77
2022-08-09T00:26:52.737Z,974.82
2022-08-09T00:27:52.687Z,974.90
2022-08-09T00:28:53.288Z,974.85
2022-08-09T00:30:16.407Z,974.82
2022-08-09T00:30:52.553Z,974.80
2022-08-09T00:31:59.949Z,974.76
2022-08-09T00:32:52.488Z,974.73
2022-08-09T00:33:52.392Z,974.78
2022-08-09T00:34:52.874Z,974.73
2022-08-09T00:35:52.306Z,974.71
2022-08-09T00:36:52.263Z,974.71
2022-08-09T00:37:52.201Z,974.71
2022-08-09T00:38:52.140Z,974.74
2022-08-09T00:40:08.916Z,974.74
2022-08-09T00:40:52.826Z,974.72
2022-08-09T00:44:14.883Z,974.77
2022-08-09T00:44:14.998Z,974.70
2022-08-09T00:44:16.791Z,974.68
2022-08-09T00:44:51.842Z,974.76
2022-08-09T00:45:54.082Z,974.73
2022-08-09T00:46:57.760Z,974.65
2022-08-09T00:47:51.697Z,974.70
2022-08-09T00:48:54.594Z,974.78
2022-08-09T00:49:52.607Z,974.79
2022-08-09T00:50:52.228Z,974.73
2022-08-09T00:51:56.044Z,974.66
2022-08-09T00:52:51.461Z,974.72
2022-08-09T00:53:51.967Z,974.81
2022-08-09T00:54:51.349Z,974.81
2022-08-09T00:56:05.049Z,974.77
2022-08-09T00:56:51.248Z,974.65
2022-08-09T00:57:51.213Z,974.57
2022-08-09T00:58:51.149Z,974.63
2022-08-09T00:59:52.428Z,974.70
2022-08-09T01:00:51.107Z,974.71
2022-08-09T01:01:51.039Z,974.78
2022-08-09T01:02:50.950Z,974.80
2022-08-09T01:03:50.897Z,974.71
2022-08-09T01:04:50.854Z,974.78
2022-08-09T01:05:53.868Z,974.80
2022-08-09T01:06:54.772Z,974.71
2022-08-09T01:08:00.420Z,974.67
2022-08-09T01:08:51.483Z,974.69
2022-08-09T01:09:50.603Z,974.68
2022-08-09T01:10:51.257Z,974.71
2022-08-09T01:11:53.098Z,974.71
2022-08-09T01:12:50.738Z,974.70
2022-08-09T01:13:59.622Z,974.72
2022-08-09T01:14:52.593Z,974.78
2022-08-09T01:15:52.042Z,974.78
2022-08-09T01:16:50.266Z,974.73
2022-08-09T01:17:50.220Z,974.69
2022-08-09T01:19:01.679Z,974.71
2022-08-09T01:20:01.654Z,974.67
2022-08-09T01:20:50.057Z,974.66
2022-08-09T01:21:51.403Z,974.71
2022-08-09T01:22:51.222Z,974.77
2022-08-09T01:24:02.591Z,974.78
2022-08-09T01:24:50.376Z,974.79
2022-08-09T01:25:51.312Z,974.77
2022-08-09T01:26:52.791Z,974.70
2022-08-09T01:27:50.747Z,974.69
2022-08-09T01:28:49.652Z,974.80
2022-08-09T01:29:55.465Z,974.78
2022-08-09T01:30:52.093Z,974.76
2022-08-09T01:32:31.325Z,974.78
2022-08-09T01:32:49.450Z,974.73
2022-08-09T01:33:49.402Z,974.67
2022-08-09T01:34:49.350Z,974.77
2022-08-09T01:35:51.760Z,974.74
2022-08-09T01:36:49.256Z,974.74
2022-08-09T01:38:09.483Z,974.75
2022-08-09T01:38:49.156Z,974.76
2022-08-09T01:39:49.120Z,974.78
2022-08-09T01:40:52.330Z,974.78
2022-08-09T01:41:53.511Z,974.76
2022-08-09T01:42:48.951Z,974.74
2022-08-09T01:43:51.935Z,974.73
2022-08-09T01:44:48.889Z,974.81
2022-08-09T01:45:48.836Z,974.82
2022-08-09T01:46:48.752Z,974.85
2022-08-09T01:47:49.807Z,974.86
2022-08-09T01:48:48.664Z,974.82
2022-08-09T01:49:50.753Z,974.81
2022-08-09T01:50:48.635Z,974.79
2022-08-09T01:51:54.409Z,974.78
2022-08-09T01:52:48.451Z,974.78
2022-08-09T01:53:49.328Z,974.77
2022-08-09T01:54:48.513Z,974.82
2022-08-09T01:55:48.329Z,974.81
2022-08-09T01:56:51.704Z,974.83
2022-08-09T01:57:52.892Z,974.85
2022-08-09T01:58:48.970Z,974.83
2022-08-09T01:59:51.951Z,974.82
2022-08-09T02:00:50.553Z,974.83
2022-08-09T02:01:59.382Z,974.82
2022-08-09T02:02:47.951Z,974.86
2022-08-09T02:03:47.902Z,974.92
2022-08-09T02:04:47.868Z,974.88
2022-08-09T02:06:06.273Z,974.92
2022-08-09T02:06:54.396Z,974.86
2022-08-09T02:08:40.560Z,974.85
2022-08-09T02:08:58.376Z,974.88
2022-08-09T02:09:59.284Z,974.88
2022-08-09T02:10:51.345Z,974.90
2022-08-09T02:11:47.516Z,974.93
2022-08-09T02:12:50.104Z,974.88
2022-08-09T02:14:06.903Z,974.92
2022-08-09T02:14:47.357Z,974.92
2022-08-09T02:15:50.329Z,974.93
2022-08-09T02:17:00.125Z,974.91
2022-08-09T02:17:59.419Z,974.89
2022-08-09T02:18:47.994Z,974.91
2022-08-09T02:19:47.099Z,974.91
2022-08-09T02:20:47.080Z,974.96
2022-08-09T02:21:46.997Z,974.95
2022-08-09T02:22:46.966Z,974.96
2022-08-09T02:23:46.898Z,974.97
2022-08-09T02:24:52.001Z,974.94
2022-08-09T02:25:49.589Z,974.99
2022-08-09T02:26:46.746Z,974.99
2022-08-09T02:28:00.591Z,975.00
2022-08-09T02:28:46.661Z,974.98
2022-08-09T02:29:46.602Z,975.00
2022-08-09T02:30:46.563Z,975.01
2022-08-09T02:31:46.503Z,975.02
2022-08-09T02:32:46.444Z,974.98
2022-08-09T02:34:07.354Z,975.00
2022-08-09T02:34:51.600Z,975.03
2022-08-09T02:36:03.350Z,975.02
2022-08-09T02:36:46.242Z,975.00
2022-08-09T02:37:46.211Z,975.00
2022-08-09T02:38:47.806Z,974.99
2022-08-09T02:39:49.947Z,974.97
2022-08-09T02:40:46.112Z,974.99
2022-08-09T02:41:45.997Z,975.03
2022-08-09T02:42:45.956Z,974.97
2022-08-09T02:43:55.029Z,974.97
2022-08-09T02:44:45.839Z,975.00
2022-08-09T02:45:45.802Z,974.96
2022-08-09T02:46:45.742Z,975.00
2022-08-09T02:47:57.442Z,975.02
2022-08-09T02:48:46.152Z,974.95
2022-08-09T02:49:45.587Z,975.02
2022-08-09T02:50:45.562Z,975.00
2022-08-09T02:51:45.485Z,974.96
2022-08-09T02:52:45.437Z,974.97
2022-08-09T02:53:52.982Z,974.95
2022-08-09T02:54:54.119Z,974.98
2022-08-09T02:55:57.345Z,975.01
2022-08-09T02:56:51.243Z,974.93
2022-08-09T02:58:00.342Z,974.92
2022-08-09T02:58:45.588Z,974.92
2022-08-09T03:00:21.563Z,974.91
2022-08-09T03:00:58.092Z,974.90
2022-08-09T03:02:05.318Z,974.88
2022-08-09T03:02:58.347Z,974.90
2022-08-09T03:04:18.425Z,974.86
2022-08-09T03:04:44.831Z,974.91
2022-08-09T03:05:44.779Z,974.87
2022-08-09T03:06:45.476Z,974.89
2022-08-09T03:07:54.990Z,974.87
2022-08-09T03:08:44.628Z,974.89
2022-08-09T03:09:54.319Z,974.90
2022-08-09T03:10:44.526Z,974.86
2022-08-09T03:12:05.372Z,974.87
2022-08-09T03:12:44.423Z,974.85
2022-08-09T03:13:59.422Z,974.86
2022-08-09T03:14:44.345Z,974.82
2022-08-09T03:16:06.787Z,974.83
2022-08-09T03:16:47.593Z,974.84
2022-08-09T03:17:44.177Z,974.84
2022-08-09T03:18:44.124Z,974.87
2022-08-09T03:19:58.931Z,974.84
2022-08-09T03:20:44.017Z,974.83
2022-08-09T03:21:43.994Z,974.85
2022-08-09T03:22:43.929Z,974.85
2022-08-09T03:23:43.866Z,974.88
2022-08-09T03:24:52.737Z,974.85
2022-08-09T03:25:58.115Z,974.88
2022-08-09T03:26:45.121Z,974.89
2022-08-09T03:27:45.062Z,974.89
2022-08-09T03:28:43.716Z,974.86
2022-08-09T03:29:57.594Z,974.86
2022-08-09T03:30:43.599Z,974.86
2022-08-09T03:32:00.225Z,974.85
2022-08-09T03:32:43.414Z,974.86
2022-08-09T03:33:53.379Z,974.90
2022-08-09T03:34:43.322Z,974.88
2022-08-09T03:36:11.718Z,974.91
2022-08-09T03:36:43.213Z,974.85
2022-08-09T03:37:55.364Z,974.87
2022-08-09T03:38:43.588Z,974.85
2022-08-09T03:39:48.559Z,974.90
2022-08-09T03:40:43.005Z,974.89
2022-08-09T03:41:45.799Z,974.90
2022-08-09T03:42:43.294Z,974.89
2022-08-09T03:43:42.850Z,974.91
2022-08-09T03:44:42.812Z,974.91
2022-08-09T03:46:13.747Z,974.90
2022-08-09T03:46:42.696Z,974.92
2022-08-09T03:47:46.729Z,974.93
2022-08-09T03:48:42.984Z,974.94
2022-08-09T03:49:57.918Z,974.96
2022-08-09T03:50:42.493Z,974.95
2022-08-09T03:51:56.287Z,974.95
2022-08-09T03:52:42.418Z,974.96
2022-08-09T03:53:42.346Z,974.97
2022-08-09T03:54:42.289Z,974.97
2022-08-09T03:55:42.312Z,974.99
2022-08-09T03:56:42.188Z,974.98
2022-08-09T03:57:53.559Z,974.98
2022-08-09T03:58:42.104Z,974.97
2022-08-09T03:59:52.954Z,974.98
2022-08-09T04:00:42.018Z,974.99
2022-08-09T04:01:41.934Z,975.01
2022-08-09T04:02:44.971Z,974.99
2022-08-09T04:04:01.047Z,974.97
2022-08-09T04:04:45.567Z,975.04
2022-08-09T04:05:41.743Z,975.03
2022-08-09T04:06:44.069Z,975.02
2022-08-09T04:07:52.518Z,975.05
2022-08-09T04:08:41.574Z,975.06
2022-08-09T04:09:47.731Z,975.01
2022-08-09T04:10:41.473Z,975.06
2022-08-09T04:11:41.439Z,975.03
2022-08-09T04:12:41.501Z,975.05
2022-08-09T04:13:44.835Z,975.03
2022-08-09T04:14:59.262Z,975.03
2022-08-09T04:16:20.985Z,975.06
2022-08-09T04:16:41.178Z,975.05
2022-08-09T04:17:42.378Z,975.02
2022-08-09T04:18:41.088Z,975.07
2022-08-09T04:19:42.728Z,975.04
2022-08-09T04:20:40.965Z,975.04
2022-08-09T04:21:40.931Z,975.05
2022-08-09T04:22:41.088Z,975.04
2022-08-09T04:23:40.806Z,975.07
2022-08-09T04:24:40.754Z,975.05
2022-08-09T04:25:40.704Z,975.05
2022-08-09T04:26:40.668Z,975.02
2022-08-09T04:27:40.601Z,975.05
2022-08-09T04:28:42.315Z,975.04
2022-08-09T04:29:40.502Z,975.06
2022-08-09T04:30:44.850Z,975.09
2022-08-09T04:31:47.177Z,975.09
2022-08-09T04:32:40.456Z,975.12
2022-08-09T04:33:51.589Z,975.13
2022-08-09T04:34:40.375Z,975.14
2022-08-09T04:35:40.190Z,975.15
2022-08-09T04:36:44.923Z,975.15
2022-08-09T04:37:45.807Z,975.20
2022-08-09T04:38:40.038Z,975.18
2022-08-09T04:39:40.680Z,975.16
2022-08-09T04:40:39.938Z,975.18
2022-08-09T04:41:43.745Z,975.19
2022-08-09T04:42:39.834Z,975.22
2022-08-09T04:43:46.557Z,975.21
2022-08-09T04:44:39.732Z,975.21
2022-08-09T04:45:53.005Z,975.23
2022-08-09T04:46:57.214Z,975.28
2022-08-09T04:47:59.275Z,975.25
2022-08-09T04:48:39.525Z,975.25
2022-08-09T04:49:52.397Z,975.26
2022-08-09T04:50:39.422Z,975.27
2022-08-09T04:51:39.371Z,975.23
2022-08-09T04:52:39.336Z,975.29
2022-08-09T04:53:39.272Z,975.32
2022-08-09T04:54:39.216Z,975.34
2022-08-09T04:55:57.134Z,975.37
2022-08-09T04:56:39.129Z,975.37
2022-08-09T04:57:54.418Z,975.39
2022-08-09T04:58:39.012Z,975.42
2022-08-09T04:59:38.983Z,975.41
2022-08-09T05:00:38.911Z,975.47
2022-08-09T05:01:38.866Z,975.47
2022-08-09T05:02:38.836Z,975.52
2022-08-09T05:03:43.316Z,975.52
2022-08-09T05:04:38.759Z,975.52
2022-08-09T05:05:51.750Z,975.50
2022-08-09T05:06:38.608Z,975.53
2022-08-09T05:07:38.573Z,975.52
2022-08-09T05:08:38.505Z,975.53
2022-08-09T05:09:45.346Z,975.54
2022-08-09T05:10:38.400Z,975.56
2022-08-09T05:11:38.347Z,975.57
2022-08-09T05:12:38.336Z,975.56
2022-08-09T05:13:38.708Z,975.60
2022-08-09T05:14:38.194Z,975.64
2022-08-09T05:15:43.029Z,975.63
2022-08-09T05:16:58.042Z,975.65
2022-08-09T05:18:38.364Z,975.63
2022-08-09T05:18:57.786Z,975.60
2022-08-09T05:19:45.911Z,975.61
2022-08-09T05:20:37.886Z,975.67
2022-08-09T05:21:47.045Z,975.65
2022-08-09T05:23:53.988Z,975.63
2022-08-09T05:23:55.373Z,975.64
2022-08-09T05:24:37.703Z,975.68
2022-08-09T05:25:37.631Z,975.66
2022-08-09T05:26:45.979Z,975.71
2022-08-09T05:27:38.884Z,975.68
2022-08-09T05:28:37.476Z,975.67
2022-08-09T05:29:37.430Z,975.69
2022-08-09T05:30:37.372Z,975.69
2022-08-09T05:31:45.842Z,975.70
2022-08-09T05:32:37.288Z,975.72
2022-08-09T05:33:42.364Z,975.72
2022-08-09T05:34:37.171Z,975.68
2022-08-09T05:35:38.890Z,975.70
2022-08-09T05:36:37.071Z,975.74
2022-08-09T05:37:38.231Z,975.74
2022-08-09T05:38:39.061Z,975.75
2022-08-09T05:39:43.174Z,975.74
2022-08-09T05:40:36.867Z,975.73
2022-08-09T05:41:36.813Z,975.73
2022-08-09T05:42:37.033Z,975.71
2022-08-09T05:43:36.723Z,975.77
2022-08-09T05:44:36.663Z,975.80
2022-08-09T05:45:43.563Z,975.77
2022-08-09T05:46:36.558Z,975.75
2022-08-09T05:47:36.529Z,975.78
2022-08-09T05:48:36.457Z,975.76
2022-08-09T05:50:30.772Z,975.78
2022-08-09T05:50:51.202Z,975.76
2022-08-09T05:51:46.248Z,975.78
2022-08-09T05:52:36.416Z,975.79
2022-08-09T05:53:39.527Z,975.81
2022-08-09T05:54:36.150Z,975.78
2022-08-09T05:55:36.100Z,975.80
2022-08-09T05:56:36.064Z,975.83
2022-08-09T05:57:56.352Z,975.83
2022-08-09T05:58:35.951Z,975.89
2022-08-09T05:59:35.894Z,975.92
2022-08-09T06:00:35.847Z,975.84
2022-08-09T06:01:42.635Z,975.85
2022-08-09T06:02:36.173Z,975.87
2022-08-09T06:03:44.028Z,975.88
2022-08-09T06:04:35.652Z,975.90
2022-08-09T06:05:57.100Z,975.91
2022-08-09T06:06:35.556Z,975.90
2022-08-09T06:07:35.490Z,975.93
2022-08-09T06:08:35.454Z,975.95
2022-08-09T06:09:54.344Z,975.90
2022-08-09T06:10:35.342Z,975.92
2022-08-09T06:11:41.207Z,975.95
2022-08-09T06:12:35.421Z,975.95
2022-08-09T06:13:35.184Z,975.98
2022-08-09T06:14:35.134Z,975.98
2022-08-09T06:15:35.099Z,975.94
2022-08-09T06:16:35.034Z,975.99
2022-08-09T06:17:40.031Z,976.00
2022-08-09T06:18:34.950Z,975.97
2022-08-09T06:19:34.884Z,975.99
2022-08-09T06:20:34.837Z,976.02
2022-08-09T06:21:34.781Z,976.02
2022-08-09T06:22:35.113Z,976.00
2022-08-09T06:23:57.716Z,975.94
2022-08-09T06:24:34.630Z,976.01
2022-08-09T06:25:34.618Z,976.03
2022-08-09T06:26:34.531Z,976.07
2022-08-09T06:27:42.231Z,976.08
2022-08-09T06:28:34.442Z,976.09
2022-08-09T06:29:34.377Z,976.13
2022-08-09T06:30:34.329Z,976.12
2022-08-09T06:31:39.680Z,976.09
2022-08-09T06:32:59.691Z,976.12
2022-08-09T06:33:41.711Z,976.11
2022-08-09T06:34:34.127Z,976.12
2022-08-09T06:35:56.364Z,976.13
2022-08-09T06:36:34.027Z,976.16
2022-08-09T06:37:50.878Z,976.18
2022-08-09T06:38:37.340Z,976.19
2022-08-09T06:39:48.689Z,976.16
2022-08-09T06:40:33.840Z,976.17
2022-08-09T06:42:08.143Z,976.17
2022-08-09T06:42:33.865Z,976.15
2022-08-09T06:43:34.164Z,976.18
2022-08-09T06:44:33.626Z,976.19
2022-08-09T06:46:07.379Z,976.14
2022-08-09T06:46:39.591Z,976.17
2022-08-09T06:47:40.043Z,976.15
2022-08-09T06:48:33.437Z,976.13
2022-08-09T06:49:52.450Z,976.18
2022-08-09T06:50:33.320Z,976.16
2022-08-09T06:51:33.283Z,976.21
2022-08-09T06:52:33.465Z,976.16
2022-08-09T06:53:38.349Z,976.20
2022-08-09T06:54:33.122Z,976.21
2022-08-09T06:55:33.146Z,976.20
2022-08-09T06:56:33.023Z,976.23
2022-08-09T06:58:01.115Z,976.24
2022-08-09T07:00:47.063Z,976.24
2022-08-09T07:00:50.665Z,976.20
2022-08-09T07:00:52.252Z,976.16
2022-08-09T07:01:53.702Z,976.21
2022-08-09T07:02:32.993Z,976.21
2022-08-09T07:03:32.667Z,976.21
2022-08-09T07:04:32.617Z,976.25
2022-08-09T07:05:58.256Z,976.22
2022-08-09T07:06:32.520Z,976.20
2022-08-09T07:07:59.833Z,976.21
2022-08-09T07:08:32.422Z,976.21
2022-08-09T07:09:57.065Z,976.23
2022-08-09T07:10:32.463Z,976.25
2022-08-09T07:11:45.630Z,976.23
2022-08-09T07:12:38.628Z,976.28
2022-08-09T07:13:45.201Z,976.27
2022-08-09T07:14:32.118Z,976.26
2022-08-09T07:16:35.228Z,976.25
2022-08-09T07:16:41.232Z,976.25
2022-08-09T07:17:39.473Z,976.25
2022-08-09T07:18:31.935Z,976.25
2022-08-09T07:19:31.870Z,976.24
2022-08-09T07:20:31.823Z,976.24
2022-08-09T07:21:31.774Z,976.24
2022-08-09T07:22:34.584Z,976.27
2022-08-09T07:23:31.757Z,976.26
2022-08-09T07:24:40.524Z,976.26
2022-08-09T07:25:31.572Z,976.24
2022-08-09T07:26:31.524Z,976.32
2022-08-09T07:27:34.192Z,976.28
2022-08-09T07:28:31.439Z,976.30
2022-08-09T07:29:38.143Z,976.28
2022-08-09T07:30:33.080Z,976.31
2022-08-09T07:31:31.289Z,976.30
2022-08-09T07:32:33.174Z,976.28
2022-08-09T07:33:52.096Z,976.29
2022-08-09T07:34:31.144Z,976.28
2022-08-09T07:35:31.076Z,976.31
2022-08-09T07:36:31.051Z,976.31
2022-08-09T07:37:30.977Z,976.32
2022-08-09T07:38:31.219Z,976.30
2022-08-09T07:39:40.213Z,976.29
2022-08-09T07:40:46.352Z,976.33
2022-08-09T07:41:33.063Z,976.37
2022-08-09T07:42:32.410Z,976.35
2022-08-09T07:43:30.682Z,976.31
2022-08-09T07:44:50.644Z,976.32
2022-08-09T07:45:37.272Z,976.28
2022-08-09T07:46:30.533Z,976.34
2022-08-09T07:47:30.731Z,976.29
2022-08-09T07:48:31.737Z,976.30
2022-08-09T07:49:30.388Z,976.24
2022-08-09T07:50:34.637Z,976.22
2022-08-09T07:52:05.905Z,976.22
2022-08-09T07:52:30.370Z,976.22
2022-08-09T07:54:01.579Z,976.24
2022-08-09T07:54:30.911Z,976.21
2022-08-09T07:55:30.094Z,976.24
2022-08-09T07:56:31.993Z,976.24
2022-08-09T07:57:35.585Z,976.22
2022-08-09T07:58:29.948Z,976.19
2022-08-09T07:59:45.841Z,976.23
2022-08-09T08:00:35.669Z,976.21
2022-08-09T08:01:34.245Z,976.22
2022-08-09T08:02:29.877Z,976.24
2022-08-09T08:03:29.716Z,976.22
2022-08-09T08:04:32.366Z,976.21
2022-08-09T08:05:29.603Z,976.25
2022-08-09T08:06:32.133Z,976.21
2022-08-09T08:08:43.972Z,976.22
2022-08-09T08:09:00.878Z,976.22
2022-08-09T08:09:36.384Z,976.20
2022-08-09T08:10:29.372Z,976.19
2022-08-09T08:12:24.745Z,976.22
2022-08-09T08:12:29.665Z,976.22
2022-08-09T08:13:29.214Z,976.23
2022-08-09T08:14:29.163Z,976.24
2022-08-09T08:15:39.274Z,976.21
2022-08-09T08:16:31.894Z,976.20
2022-08-09T08:17:53.174Z,976.23
2022-08-09T08:18:28.973Z,976.21
2022-08-09T08:19:31.250Z,976.22
2022-08-09T08:20:32.424Z,976.22
2022-08-09T08:21:28.831Z,976.21
2022-08-09T08:22:28.781Z,976.25
2022-08-09T08:23:28.732Z,976.23
2022-08-09T08:24:40.047Z,976.26
2022-08-09T08:25:44.721Z,976.26
2022-08-09T08:26:41.939Z,976.29
2022-08-09T08:27:28.540Z,976.30
2022-08-09T08:28:32.888Z,976.30
2022-08-09T08:29:28.686Z,976.27
2022-08-09T08:30:28.929Z,976.29
2022-08-09T08:31:30.686Z,976.30
2022-08-09T08:32:29.432Z,976.33
2022-08-09T08:33:28.253Z,976.33
2022-08-09T08:34:28.222Z,976.32
2022-08-09T08:35:37.071Z,976.32
2022-08-09T08:36:28.909Z,976.32
2022-08-09T08:37:41.412Z,976.31
2022-08-09T08:38:28.261Z,976.23
2022-08-09T08:39:28.022Z,976.27
2022-08-09T08:40:29.540Z,976.24
2022-08-09T08:41:50.226Z,976.23
2022-08-09T08:42:31.888Z,976.31
2022-08-09T08:43:28.037Z,976.35
2022-08-09T08:44:29.164Z,976.42
2022-08-09T08:45:36.697Z,976.46
2022-08-09T08:46:32.445Z,976.48
2022-08-09T08:47:27.645Z,976.45
2022-08-09T08:48:29.207Z,976.44
2022-08-09T08:49:33.251Z,976.43
2022-08-09T08:50:27.478Z,976.37
2022-08-09T08:51:27.444Z,976.36
2022-08-09T08:53:32.273Z,976.37
2022-08-09T08:54:30.119Z,976.36
2022-08-09T08:55:27.257Z,976.36
2022-08-09T08:56:28.496Z,976.38
2022-08-09T08:57:27.287Z,976.42
2022-08-09T08:58:27.458Z,976.43
2022-08-09T08:59:28.079Z,976.38
2022-08-09T09:00:27.551Z,976.36
2022-08-09T09:01:35.589Z,976.37
2022-08-09T09:02:31.316Z,976.34
2022-08-09T09:03:37.116Z,976.38
2022-08-09T09:04:27.605Z,976.40
2022-08-09T09:05:57.579Z,976.38
2022-08-09T09:06:26.806Z,976.40
2022-08-09T09:07:26.737Z,976.37
2022-08-09T09:08:30.437Z,976.41
2022-08-09T09:10:01.980Z,976.42
2022-08-09T09:10:26.752Z,976.46
2022-08-09T09:11:26.572Z,976.50
2022-08-09T09:12:26.622Z,976.51
2022-08-09T09:13:42.138Z,976.47
2022-08-09T09:14:26.507Z,976.47
2022-08-09T09:15:28.442Z,976.46
2022-08-09T09:16:30.629Z,976.47
2022-08-09T09:17:46.410Z,976.45
2022-08-09T09:18:26.327Z,976.44
2022-08-09T09:19:42.076Z,976.43
2022-08-09T09:20:27.660Z,976.46
2022-08-09T09:21:26.536Z,976.47
2022-08-09T09:22:28.788Z,976.44
2022-08-09T09:23:37.810Z,976.44
2022-08-09T09:24:26.046Z,976.45
2022-08-09T09:26:04.977Z,976.43
2022-08-09T09:26:26.294Z,976.49
2022-08-09T09:28:05.155Z,976.47
2022-08-09T09:28:53.205Z,976.42
2022-08-09T09:29:25.826Z,976.47
2022-08-09T09:30:40.894Z,976.48
2022-08-09T09:32:06.865Z,976.44
2022-08-09T09:32:34.729Z,976.43
2022-08-09T09:33:25.661Z,976.42
2022-08-09T09:34:25.617Z,976.44
2022-08-09T09:35:26.464Z,976.41
2022-08-09T09:36:25.537Z,976.47
2022-08-09T09:37:25.499Z,976.45
2022-08-09T09:38:27.818Z,976.48
2022-08-09T09:39:42.649Z,976.47
2022-08-09T09:40:26.003Z,976.53
2022-08-09T09:41:25.341Z,976.45
2022-08-09T09:42:25.594Z,976.50
2022-08-09T09:43:25.253Z,976.43
2022-08-09T09:44:27.535Z,976.44
2022-08-09T09:45:25.740Z,976.38
2022-08-09T09:46:42.934Z,976.39
2022-08-09T09:47:25.084Z,976.39
2022-08-09T09:48:25.057Z,976.35
2022-08-09T09:49:50.215Z,976.39
2022-08-09T09:50:24.975Z,976.37
2022-08-09T09:51:38.138Z,976.34
2022-08-09T09:52:35.872Z,976.39
2022-08-09T09:53:43.630Z,976.37
2022-08-09T09:54:24.811Z,976.37
2022-08-09T09:55:31.927Z,976.37
2022-08-09T09:56:31.573Z,976.38
2022-08-09T09:58:02.531Z,976.46
2022-08-09T09:58:24.630Z,976.42
2022-08-09T09:59:29.032Z,976.47
2022-08-09T10:00:24.961Z,976.43
2022-08-09T10:01:37.332Z,976.44
2022-08-09T10:02:24.488Z,976.47
2022-08-09T10:03:24.453Z,976.46
2022-08-09T10:04:30.934Z,976.44
2022-08-09T10:05:27.214Z,976.43
2022-08-09T10:06:24.296Z,976.44
2022-08-09T10:07:24.253Z,976.42
2022-08-09T10:08:27.646Z,976.47
2022-08-09T10:09:24.372Z,976.52
2022-08-09T10:10:24.143Z,976.53
2022-08-09T10:12:00.702Z,976.52
2022-08-09T10:12:28.563Z,976.49
2022-08-09T10:13:43.608Z,976.52
2022-08-09T10:14:27.702Z,976.52
2022-08-09T10:15:51.089Z,976.51
2022-08-09T10:16:58.231Z,976.46
2022-08-09T10:17:51.229Z,976.48
2022-08-09T10:18:23.805Z,976.51
2022-08-09T10:19:23.761Z,976.49
2022-08-09T10:20:27.555Z,976.44
2022-08-09T10:21:23.676Z,976.44
2022-08-09T10:22:29.282Z,976.41
2022-08-09T10:23:23.723Z,976.42
2022-08-09T10:24:25.691Z,976.39
2022-08-09T10:25:23.505Z,976.37
2022-08-09T10:26:24.625Z,976.37
2022-08-09T10:27:28.696Z,976.35
2022-08-09T10:28:23.384Z,976.30
2022-08-09T10:30:27.351Z,976.31
2022-08-09T10:32:42.421Z,976.33
2022-08-09T10:33:29.599Z,976.37
2022-08-09T10:34:34.004Z,976.36
2022-08-09T10:35:23.132Z,976.35
2022-08-09T10:36:23.106Z,976.42
2022-08-09T10:37:23.028Z,976.39
2022-08-09T10:38:55.326Z,976.40
2022-08-09T10:39:23.008Z,976.34
2022-08-09T10:40:33.334Z,976.39
2022-08-09T10:41:22.857Z,976.34
2022-08-09T10:42:26.956Z,976.31
2022-08-09T10:43:22.773Z,976.27
2022-08-09T10:44:23.127Z,976.27
2022-08-09T10:45:22.696Z,976.32
2022-08-09T10:46:26.669Z,976.33
2022-08-09T10:48:16.614Z,976.29
2022-08-09T10:48:30.004Z,976.27
2022-08-09T10:49:22.548Z,976.32
2022-08-09T10:50:30.780Z,976.32
2022-08-09T10:51:29.500Z,976.27
2022-08-09T10:52:22.420Z,976.29
2022-08-09T10:53:23.024Z,976.27
2022-08-09T10:54:22.352Z,976.24
2022-08-09T10:55:22.742Z,976.28
2022-08-09T10:56:22.855Z,976.25
2022-08-09T10:57:22.230Z,976.25
2022-08-09T10:58:25.506Z,976.27
2022-08-09T10:59:23.137Z,976.32
2022-08-09T11:00:22.095Z,976.34
2022-08-09T11:03:13.758Z,976.30
2022-08-09T11:03:14.277Z,976.28
2022-08-09T11:03:53.193Z,976.32
2022-08-09T11:04:30.632Z,976.31
2022-08-09T11:05:24.812Z,976.33
2022-08-09T11:06:22.928Z,976.34
2022-08-09T11:07:22.026Z,976.34
2022-08-09T11:08:30.298Z,976.36
2022-08-09T11:09:22.731Z,976.29
2022-08-09T11:10:21.701Z,976.31
2022-08-09T11:11:21.681Z,976.27
2022-08-09T11:12:21.640Z,976.21
2022-08-09T11:13:49.161Z,976.25
2022-08-09T11:14:28.015Z,976.15
2022-08-09T11:15:23.997Z,976.14
2022-08-09T11:16:35.427Z,976.08
2022-08-09T11:17:21.462Z,976.11
2022-08-09T11:18:21.386Z,976.09
2022-08-09T11:19:21.363Z,976.10
2022-08-09T11:20:23.191Z,976.08
2022-08-09T11:21:21.276Z,976.10
2022-08-09T11:22:24.290Z,976.12
2022-08-09T11:23:23.869Z,976.03
2022-08-09T11:24:21.149Z,976.15
2022-08-09T11:25:25.662Z,976.13
2022-08-09T11:26:21.130Z,976.16
2022-08-09T11:27:25.416Z,976.14
2022-08-09T11:28:33.928Z,976.13
2022-08-09T11:30:04.339Z,976.12
2022-08-09T11:30:31.865Z,976.09
2022-08-09T11:31:36.456Z,976.10
2022-08-09T11:32:20.840Z,976.11
2022-08-09T11:33:20.800Z,976.20
2022-08-09T11:34:20.777Z,976.22
2022-08-09T11:35:25.064Z,976.16
2022-08-09T11:36:35.763Z,976.18
2022-08-09T11:37:20.643Z,976.10
2022-08-09T11:38:22.234Z,976.10
2022-08-09T11:39:20.654Z,976.15
2022-08-09T11:40:20.527Z,976.12
2022-08-09T11:41:20.489Z,976.14
2022-08-09T11:42:20.452Z,976.07
2022-08-09T11:43:20.411Z,976.17
2022-08-09T11:44:20.385Z,976.18
2022-08-09T11:45:20.333Z,976.18
2022-08-09T11:46:33.023Z,976.21
2022-08-09T11:47:20.254Z,976.25
2022-08-09T11:48:26.667Z,976.26
2022-08-09T11:49:28.223Z,976.26
2022-08-09T11:50:54.842Z,976.21
2022-08-09T11:53:02.349Z,976.17
2022-08-09T11:53:02.585Z,976.21
2022-08-09T11:53:58.834Z,976.17
2022-08-09T11:54:27.686Z,976.08
2022-08-09T11:55:21.734Z,976.12
2022-08-09T11:56:20.053Z,976.08
2022-08-09T11:57:28.251Z,976.07
2022-08-09T11:58:19.848Z,976.07
2022-08-09T11:59:19.793Z,976.09
2022-08-09T12:00:24.591Z,976.07
2022-08-09T12:02:00.777Z,976.04
2022-08-09T12:02:37.710Z,976.04
2022-08-09T12:03:55.562Z,976.03
2022-08-09T12:04:23.928Z,976.02
2022-08-09T12:05:23.108Z,976.10
2022-08-09T12:06:26.784Z,976.07
2022-08-09T12:07:19.484Z,976.05
2022-08-09T12:08:21.512Z,976.09
2022-08-09T12:09:20.913Z,976.07
2022-08-09T12:10:38.293Z,976.09
2022-08-09T12:11:19.327Z,976.03
2022-08-09T12:12:20.223Z,976.03
2022-08-09T12:14:07.195Z,976.02
2022-08-09T12:14:28.770Z,975.98
2022-08-09T12:15:19.166Z,976.03
2022-08-09T12:16:37.128Z,976.05
2022-08-09T12:17:34.458Z,976.02
2022-08-09T12:18:30.121Z,976.01
2022-08-09T12:19:19.037Z,976.04
2022-08-09T12:20:21.710Z,976.05
2022-08-09T12:21:26.499Z,976.05
2022-08-09T12:22:18.956Z,976.08
2022-08-09T12:23:24.773Z,976.02
2022-08-09T12:24:18.823Z,976.06
2022-08-09T12:25:36.420Z,976.09
2022-08-09T12:26:25.736Z,976.04
2022-08-09T12:28:58.428Z,976.07
2022-08-09T12:29:11.581Z,976.01
2022-08-09T12:29:43.835Z,976.02
2022-08-09T12:30:38.726Z,976.02
2022-08-09T12:31:31.051Z,975.96